Time;durP1;ratioP1;P1;durP2;ratioP2;P2;SDS_P1;SDS_P2;PMS_P1;PMS_P2;Temp;Humidity;BMP_temperature;BMP_pressure;BME280_temperature;BME280_humidity;BME280_pressure;Samples;Min_cycle;Max_cycle;Signal;HPM_P1;HPM_P2
2023/02/20 00:00:27;;;;;;;14.33;12.67;;;27.90;69.30;;;;;;5069709;28;20559;-75
2023/02/20 00:02:54;;;;;;;15.13;12.73;;;28.10;69.60;;;;;;5073113;28;20191;-75
2023/02/20 00:05:22;;;;;;;15.20;12.73;;;28.30;68.50;;;;;;5069385;28;20218;-76
2023/02/20 00:07:49;;;;;;;14.93;12.13;;;28.40;68.70;;;;;;5072734;28;20242;-71
2023/02/20 00:10:17;;;;;;;15.73;12.17;;;28.40;68.50;;;;;;5072130;28;20274;-73
2023/02/20 00:12:45;;;;;;;14.57;11.80;;;28.00;68.90;;;;;;5068994;28;20273;-72
2023/02/20 00:15:18;;;;;;;16.80;13.33;;;28.10;69.50;;;;;;5071059;28;20642;-73
2023/02/20 00:17:48;;;;;;;16.20;12.67;;;28.40;68.90;;;;;;5070819;28;20183;-74
2023/02/20 00:20:18;;;;;;;15.57;12.13;;;28.80;67.90;;;;;;5073408;28;20183;-75
2023/02/20 00:22:46;;;;;;;12.90;10.97;;;29.00;67.00;;;;;;5072233;28;20175;-74
2023/02/20 00:25:15;;;;;;;13.63;9.97;;;29.30;65.60;;;;;;5073131;28;20202;-73
2023/02/20 00:27:43;;;;;;;11.87;9.20;;;29.20;65.30;;;;;;5070607;28;20226;-75
2023/02/20 00:30:17;;;;;;;11.93;7.87;;;29.10;66.30;;;;;;5074018;28;20195;-74
2023/02/20 00:32:45;;;;;;;13.67;8.20;;;29.10;65.50;;;;;;5070755;28;20179;-74
2023/02/20 00:35:13;;;;;;;12.10;7.73;;;29.10;66.50;;;;;;5073317;28;20179;-75
2023/02/20 00:37:40;;;;;;;12.47;6.83;;;29.20;66.40;;;;;;5073516;28;20629;-74
2023/02/20 00:40:08;;;;;;;9.67;6.87;;;29.30;66.30;;;;;;5071184;28;20218;-75
2023/02/20 00:42:35;;;;;;;9.03;6.20;;;29.30;66.60;;;;;;5071855;28;20592;-75
2023/02/20 00:45:04;;;;;;;10.10;6.20;;;29.60;65.50;;;;;;5072893;28;20271;-74
2023/02/20 00:47:32;;;;;;;12.27;5.37;;;29.60;65.80;;;;;;5072966;28;20297;-74
2023/02/20 00:49:59;;;;;;;7.83;4.60;;;29.60;65.90;;;;;;5068820;28;20187;-75
2023/02/20 00:52:29;;;;;;;10.77;5.17;;;29.70;66.00;;;;;;5062621;28;20206;-73
2023/02/20 00:54:57;;;;;;;10.50;5.07;;;29.80;66.20;;;;;;5068719;28;20282;-72
2023/02/20 00:57:24;;;;;;;8.63;4.90;;;29.80;65.40;;;;;;5069024;28;20176;-74
2023/02/20 00:59:52;;;;;;;10.43;4.70;;;29.80;65.70;;;;;;5069603;28;20262;-74
2023/02/20 01:02:20;;;;;;;12.47;5.27;;;30.00;65.10;;;;;;5068491;28;20217;-73
2023/02/20 01:04:47;;;;;;;8.37;4.60;;;29.90;65.00;;;;;;5070215;28;20695;-73
2023/02/20 01:07:15;;;;;;;11.73;5.07;;;30.00;65.00;;;;;;5070374;28;20223;-74
2023/02/20 01:09:43;;;;;;;12.30;5.00;;;30.20;63.80;;;;;;5069205;28;20289;-74
2023/02/20 01:12:10;;;;;;;7.50;4.30;;;30.30;63.00;;;;;;5071600;28;20183;-73
2023/02/20 01:14:38;;;;;;;7.30;4.03;;;29.90;64.30;;;;;;5068662;28;20196;-76
2023/02/20 01:17:05;;;;;;;10.57;4.67;;;30.00;64.60;;;;;;5069012;28;20547;-74
2023/02/20 01:19:32;;;;;;;13.00;5.23;;;30.20;63.80;;;;;;5069543;28;20194;-73
2023/02/20 01:22:01;;;;;;;12.17;4.80;;;30.30;63.50;;;;;;5071641;28;20278;-70
2023/02/20 01:24:29;;;;;;;11.17;4.83;;;30.30;63.20;;;;;;5066031;28;20281;-72
2023/02/20 01:26:56;;;;;;;8.50;3.97;;;30.10;64.00;;;;;;5069693;28;20746;-75
2023/02/20 01:29:23;;;;;;;6.73;3.90;;;29.80;64.70;;;;;;5068766;28;20174;-74
2023/02/20 01:31:51;;;;;;;7.53;4.13;;;29.90;64.00;;;;;;5069431;28;20255;-73
2023/02/20 01:34:20;;;;;;;7.47;4.00;;;30.00;64.60;;;;;;5068350;28;20183;-71
2023/02/20 01:36:49;;;;;;;9.47;5.40;;;30.20;64.10;;;;;;5069352;28;20274;-72
2023/02/20 01:39:21;;;;;;;10.00;4.97;;;30.30;62.40;;;;;;5070141;28;20217;-75
2023/02/20 01:41:53;;;;;;;9.17;3.47;;;30.00;63.40;;;;;;5066402;28;20179;-72
2023/02/20 01:44:23;;;;;;;8.13;3.50;;;29.80;64.30;;;;;;5066286;28;20180;-74
2023/02/20 01:46:55;;;;;;;9.60;3.67;;;30.10;64.10;;;;;;5066040;28;20227;-69
2023/02/20 01:49:40;;;;;;;11.50;4.20;;;29.90;63.30;;;;;;5067671;28;20543;-73
2023/02/20 01:52:27;;;;;;;9.80;3.73;;;29.90;63.50;;;;;;5070402;28;20582;-72
2023/02/20 01:55:15;;;;;;;7.87;3.77;;;30.10;62.80;;;;;;5069677;28;20256;-73
2023/02/20 01:57:49;;;;;;;6.33;4.10;;;30.10;63.20;;;;;;5064559;28;20175;-73
2023/02/20 02:00:19;;;;;;;7.43;4.43;;;30.30;62.20;;;;;;5066990;28;20212;-71
2023/02/20 02:02:53;;;;;;;9.23;4.63;;;30.30;62.20;;;;;;5068026;28;20262;-72
2023/02/20 02:05:21;;;;;;;5.83;3.63;;;30.40;61.10;;;;;;5068173;28;20223;-71
2023/02/20 02:07:49;;;;;;;8.27;3.20;;;30.10;61.70;;;;;;5065303;28;20283;-73
2023/02/20 02:10:22;;;;;;;5.67;3.10;;;30.30;61.60;;;;;;5065278;28;20270;-72
2023/02/20 02:12:52;;;;;;;8.80;3.57;;;30.20;61.60;;;;;;5068371;28;20541;-74
2023/02/20 02:15:23;;;;;;;7.70;3.20;;;30.20;60.60;;;;;;5068457;28;20669;-72
2023/02/20 02:18:16;;;;;;;5.37;3.37;;;30.40;60.30;;;;;;5070240;28;20265;-73
2023/02/20 02:21:10;;;;;;;8.60;4.10;;;30.30;60.30;;;;;;5063473;28;20180;-71
2023/02/20 02:23:58;;;;;;;5.43;2.73;;;30.30;60.50;;;;;;5069104;28;20262;-73
2023/02/20 02:27:03;;;;;;;4.97;2.45;;;30.80;59.00;;;;;;5065591;28;20206;-72
2023/02/20 02:30:07;;;;;;;9.88;3.00;;;30.90;58.30;;;;;;5067169;28;20255;-69
2023/02/20 02:32:55;;;;;;;9.13;3.05;;;30.60;59.30;;;;;;5067481;28;20184;-74
2023/02/20 02:35:48;;;;;;;5.00;2.40;;;30.80;59.10;;;;;;5066292;28;20171;-72
2023/02/20 02:38:27;;;;;;;8.30;2.13;;;30.80;58.80;;;;;;5068556;28;20266;-71
2023/02/20 02:41:03;;;;;;;5.13;2.13;;;30.80;59.40;;;;;;5067903;28;20175;-71
2023/02/20 02:43:57;;;;;;;9.90;4.95;;;30.80;59.30;;;;;;5067266;28;20210;-73
2023/02/20 02:46:29;;;;;;;5.80;2.60;;;31.20;58.70;;;;;;5067842;28;20729;-71
2023/02/20 02:49:24;;;;;;;8.02;2.30;;;30.80;58.90;;;;;;5071108;28;20183;-75
2023/02/20 02:51:54;;;;;;;5.03;2.03;;;30.90;59.50;;;;;;5068522;28;20545;-72
2023/02/20 02:54:27;;;;;;;7.50;2.20;;;31.00;59.20;;;;;;5064081;28;20179;-71
2023/02/20 02:57:18;;;;;;;4.63;1.83;;;31.00;58.60;;;;;;5068297;28;20167;-70
2023/02/20 02:59:47;;;;;;;7.50;2.15;;;30.90;59.30;;;;;;5065150;28;20547;-72
2023/02/20 03:02:16;;;;;;;5.18;1.83;;;31.00;58.70;;;;;;5066493;28;20663;-74
2023/02/20 03:04:49;;;;;;;7.22;1.92;;;31.30;57.90;;;;;;5066242;28;20223;-73
2023/02/20 03:07:21;;;;;;;7.07;2.25;;;30.90;58.90;;;;;;5066758;28;20681;-70
2023/02/20 03:09:58;;;;;;;5.38;1.90;;;30.80;59.30;;;;;;5064839;28;20175;-73
2023/02/20 03:12:26;;;;;;;8.93;2.05;;;31.30;58.20;;;;;;5066551;28;20187;-71
2023/02/20 03:18:14;;;;;;;5.80;1.67;;;30.80;59.30;;;;;;5063948;28;20237;-73
2023/02/20 03:21:26;;;;;;;6.13;1.70;;;30.60;60.10;;;;;;5069369;28;20183;-70
2023/02/20 03:23:59;;;;;;;6.05;1.67;;;30.70;59.10;;;;;;5066154;28;20248;-70
2023/02/20 03:26:34;;;;;;;9.90;2.00;;;31.20;58.50;;;;;;5067374;28;20294;-71
2023/02/20 03:29:30;;;;;;;5.57;1.80;;;31.60;57.40;;;;;;5065581;28;20191;-69
2023/02/20 03:43:25;;;;;;;5.40;1.80;;;32.10;56.30;;;;;;5074088;28;20250;-74
2023/02/20 03:46:10;;;;;;;3.92;1.63;;;32.30;55.10;;;;;;5073849;28;20261;-71
2023/02/20 03:48:42;;;;;;;7.97;2.15;;;31.90;56.40;;;;;;5072418;28;20191;-69
2023/02/20 03:51:11;;;;;;;7.40;1.67;;;32.60;55.70;;;;;;5073931;28;20558;-70
2023/02/20 03:53:40;;;;;;;9.80;2.05;;;32.60;54.70;;;;;;5073736;28;20186;-69
2023/02/20 03:56:30;;;;;;;7.88;1.70;;;32.60;54.80;;;;;;5073808;28;20171;-69
2023/02/20 03:59:11;;;;;;;7.95;2.42;;;32.30;56.10;;;;;;5073071;28;20270;-68
2023/02/20 04:01:41;;;;;;;8.15;2.40;;;32.20;56.30;;;;;;5073488;28;20987;-70
2023/02/20 04:04:16;;;;;;;11.02;2.25;;;31.90;56.50;;;;;;5073230;28;20579;-70
2023/02/20 04:06:46;;;;;;;7.65;1.98;;;32.30;55.80;;;;;;5084329;28;20229;-69
2023/02/20 04:09:20;;;;;;;5.10;1.50;;;32.10;55.20;;;;;;5071042;28;20179;-73
2023/02/20 04:11:55;;;;;;;8.40;1.42;;;32.40;54.30;;;;;;5091667;28;20183;-70
2023/02/20 04:14:29;;;;;;;8.20;1.63;;;32.10;54.80;;;;;;5073729;28;20250;-71
2023/02/20 04:17:05;;;;;;;6.15;1.55;;;31.80;55.90;;;;;;5070198;28;20184;-71
2023/02/20 04:19:33;;;;;;;4.15;1.20;;;31.80;55.30;;;;;;5072290;28;20176;-74
2023/02/20 04:22:06;;;;;;;7.57;1.70;;;31.80;54.90;;;;;;5070266;28;20647;-73
2023/02/20 04:24:52;;;;;;;4.82;1.58;;;31.80;55.10;;;;;;5070229;28;20187;-71
2023/02/20 04:27:20;;;;;;;5.95;1.58;;;31.90;54.00;;;;;;5064640;28;20222;-70
2023/02/20 04:29:48;;;;;;;5.32;1.60;;;31.60;54.80;;;;;;5073577;28;20203;-71
2023/02/20 04:32:15;;;;;;;6.13;1.33;;;31.70;54.70;;;;;;5069132;28;20187;-71
2023/02/20 04:34:42;;;;;;;6.28;1.45;;;31.80;54.40;;;;;;5065002;28;20541;-68
2023/02/20 04:37:16;;;;;;;6.18;1.63;;;31.80;53.50;;;;;;5066657;28;20183;-70
2023/02/20 04:39:43;;;;;;;8.05;1.55;;;31.90;54.10;;;;;;5069555;28;20622;-71
2023/02/20 04:42:11;;;;;;;13.23;3.60;;;32.00;53.70;;;;;;5072282;28;20183;-73
2023/02/20 04:44:38;;;;;;;8.10;4.22;;;32.10;52.30;;;;;;5062238;28;20183;-73
2023/02/20 04:47:11;;;;;;;4.72;1.50;;;31.70;53.20;;;;;;5070250;28;20217;-67
2023/02/20 04:49:38;;;;;;;10.35;1.67;;;31.60;53.80;;;;;;5067658;28;20531;-72
2023/02/20 04:52:05;;;;;;;4.90;1.13;;;32.30;51.90;;;;;;5067502;28;20225;-71
2023/02/20 04:54:33;;;;;;;6.15;1.50;;;32.00;52.10;;;;;;5068470;28;20183;-70
2023/02/20 04:57:00;;;;;;;2.00;1.13;;;32.20;51.60;;;;;;5063973;28;20244;-77
2023/02/20 04:59:27;;;;;;;7.00;1.80;;;31.80;52.40;;;;;;5065758;28;20175;-70
2023/02/20 05:01:55;;;;;;;7.40;1.67;;;32.10;51.70;;;;;;5072478;28;20703;-70
2023/02/20 05:04:23;;;;;;;8.88;1.92;;;32.10;51.70;;;;;;5067152;28;20285;-76
2023/02/20 05:06:52;;;;;;;5.95;1.85;;;32.20;51.40;;;;;;5068479;28;20211;-70
2023/02/20 05:09:21;;;;;;;3.72;1.17;;;32.10;51.50;;;;;;5067920;28;20182;-74
2023/02/20 05:11:48;;;;;;;5.10;1.42;;;32.20;51.70;;;;;;5069969;28;20184;-70
2023/02/20 05:14:16;;;;;;;10.52;1.60;;;31.90;51.90;;;;;;5070246;28;20186;-71
2023/02/20 05:16:44;;;;;;;6.43;1.50;;;32.80;50.70;;;;;;5070824;28;20317;-70
2023/02/20 05:19:12;;;;;;;8.25;1.60;;;32.10;52.10;;;;;;5067586;28;20246;-72
2023/02/20 05:24:28;;;;;;;6.82;1.80;;;32.00;52.60;;;;;;5066639;28;20202;-71
2023/02/20 05:26:56;;;;;;;6.30;1.63;;;32.50;50.80;;;;;;5067553;28;20306;-71
2023/02/20 05:29:23;;;;;;;10.52;2.03;;;32.50;50.70;;;;;;5060635;28;20176;-69
2023/02/20 05:31:51;;;;;;;6.45;1.80;;;32.00;52.60;;;;;;5067876;28;20183;-70
2023/02/20 05:34:21;;;;;;;6.15;1.95;;;32.10;52.80;;;;;;5069964;28;20183;-70
2023/02/20 05:36:49;;;;;;;5.57;1.50;;;32.30;52.00;;;;;;5070740;28;20187;-72
2023/02/20 05:39:16;;;;;;;7.03;1.88;;;31.70;52.80;;;;;;5067785;28;20645;-71
2023/02/20 05:41:45;;;;;;;6.68;1.77;;;31.80;52.70;;;;;;5062466;28;20188;-72
2023/02/20 05:44:12;;;;;;;6.95;1.45;;;31.80;52.60;;;;;;5064135;28;20665;-74
2023/02/20 05:46:41;;;;;;;7.55;1.70;;;31.40;52.80;;;;;;5070539;28;20289;-73
2023/02/20 05:49:10;;;;;;;8.63;2.10;;;31.50;53.50;;;;;;5067562;28;20186;-69
2023/02/20 05:51:38;;;;;;;7.50;1.77;;;31.50;53.30;;;;;;5070359;28;20642;-71
2023/02/20 05:54:05;;;;;;;7.53;1.70;;;31.80;52.60;;;;;;5069034;28;20642;-71
2023/02/20 05:56:33;;;;;;;8.45;1.90;;;32.20;51.50;;;;;;5069304;28;20187;-69
2023/02/20 05:59:01;;;;;;;6.93;1.90;;;32.00;51.90;;;;;;5069797;28;20698;-72
2023/02/20 06:01:30;;;;;;;8.32;1.75;;;31.50;53.60;;;;;;5065913;28;20693;-70
2023/02/20 06:04:00;;;;;;;7.57;1.92;;;31.50;54.30;;;;;;5066635;28;20212;-70
2023/02/20 06:06:38;;;;;;;7.15;2.00;;;32.00;53.10;;;;;;5067028;28;20233;-69
2023/02/20 06:09:07;;;;;;;7.60;1.98;;;31.70;53.80;;;;;;5069330;28;20201;-72
2023/02/20 06:11:35;;;;;;;8.30;2.05;;;32.30;52.20;;;;;;5063683;28;20738;-75
2023/02/20 06:14:03;;;;;;;10.38;4.80;;;31.80;53.20;;;;;;5071600;28;20266;-75
2023/02/20 06:16:32;;;;;;;13.07;2.42;;;31.40;54.60;;;;;;5069986;28;20683;-71
2023/02/20 06:18:59;;;;;;;5.63;1.55;;;31.60;54.50;;;;;;5068991;28;20537;-71
2023/02/20 06:21:27;;;;;;;9.27;2.30;;;32.20;52.00;;;;;;5069030;28;20245;-73
2023/02/20 06:23:55;;;;;;;10.25;2.33;;;32.40;52.30;;;;;;5066596;28;20174;-69
2023/02/20 06:26:23;;;;;;;10.88;2.30;;;32.60;52.10;;;;;;5063885;28;20632;-68
2023/02/20 06:28:53;;;;;;;10.35;2.13;;;32.10;53.50;;;;;;5064343;28;20183;-69
2023/02/20 06:31:27;;;;;;;10.02;1.85;;;32.50;52.20;;;;;;5069746;28;20638;-71
2023/02/20 06:33:55;;;;;;;11.45;2.42;;;31.80;53.60;;;;;;5068129;28;20212;-71
2023/02/20 06:36:27;;;;;;;7.00;2.28;;;31.60;54.50;;;;;;5070542;28;20731;-69
2023/02/20 06:38:54;;;;;;;8.48;2.28;;;31.40;54.90;;;;;;5070082;28;20175;-74
2023/02/20 06:41:23;;;;;;;8.18;2.05;;;31.80;53.70;;;;;;5065902;28;20197;-68
2023/02/20 06:43:50;;;;;;;9.00;1.95;;;31.60;55.10;;;;;;5075799;28;20540;-72
2023/02/20 06:46:17;;;;;;;12.85;2.03;;;31.90;53.70;;;;;;5066899;28;20564;-74
2023/02/20 06:48:50;;;;;;;9.15;1.75;;;31.60;54.70;;;;;;5070887;28;20198;-72
2023/02/20 06:51:19;;;;;;;10.98;2.15;;;30.90;55.70;;;;;;5068626;28;20179;-74
2023/02/20 06:53:48;;;;;;;9.77;2.00;;;31.40;54.80;;;;;;5070508;28;20479;-73
2023/02/20 06:56:21;;;;;;;9.73;2.20;;;31.00;55.50;;;;;;5067847;28;20299;-74
2023/02/20 06:58:50;;;;;;;9.73;2.80;;;30.00;58.50;;;;;;5070229;28;20256;-73
2023/02/20 07:01:19;;;;;;;8.30;2.22;;;30.30;58.20;;;;;;5070404;28;20183;-72
2023/02/20 07:03:52;;;;;;;14.95;2.13;;;30.30;58.40;;;;;;5071533;28;20223;-70
2023/02/20 07:06:19;;;;;;;7.93;2.35;;;30.30;58.90;;;;;;5064454;28;20211;-73
2023/02/20 07:08:47;;;;;;;11.55;2.35;;;30.40;57.80;;;;;;5060676;28;20172;-70
2023/02/20 07:11:16;;;;;;;11.80;2.67;;;31.00;56.70;;;;;;5069708;28;20182;-70
2023/02/20 07:13:44;;;;;;;13.07;4.00;;;31.40;55.70;;;;;;5066719;28;20270;-70
2023/02/20 07:16:11;;;;;;;11.23;2.25;;;30.40;58.50;;;;;;5074096;28;20187;-72
2023/02/20 07:18:39;;;;;;;7.57;2.38;;;30.60;58.70;;;;;;5074718;28;20233;-75
2023/02/20 07:21:06;;;;;;;10.68;2.20;;;30.40;57.50;;;;;;5071868;28;20270;-70
2023/02/20 07:23:34;;;;;;;10.95;2.50;;;30.20;58.90;;;;;;5075209;28;20179;-71
2023/02/20 07:26:01;;;;;;;9.40;2.28;;;30.30;58.30;;;;;;5073226;28;20195;-73
2023/02/20 07:28:28;;;;;;;9.52;2.10;;;29.90;59.20;;;;;;5073271;28;20198;-73
2023/02/20 07:30:56;;;;;;;11.83;2.33;;;29.80;59.50;;;;;;5074339;28;20179;-71
2023/02/20 07:33:23;;;;;;;13.70;2.30;;;29.90;59.50;;;;;;5070960;28;20250;-76
2023/02/20 07:35:51;;;;;;;10.48;2.38;;;29.80;59.50;;;;;;5070994;28;20197;-72
2023/02/20 07:38:18;;;;;;;13.15;2.53;;;30.00;58.60;;;;;;5074725;28;20179;-71
2023/02/20 07:40:45;;;;;;;13.13;2.87;;;29.90;59.60;;;;;;5071986;28;20278;-71
2023/02/20 07:43:13;;;;;;;10.05;2.72;;;30.10;59.50;;;;;;5072950;28;20223;-71
2023/02/20 07:45:41;;;;;;;10.05;2.75;;;30.00;59.50;;;;;;5069597;28;20175;-72
2023/02/20 07:48:08;;;;;;;8.77;2.08;;;29.80;60.00;;;;;;5073308;28;20215;-69
2023/02/20 07:50:37;;;;;;;11.53;2.50;;;29.40;61.60;;;;;;5072730;28;20226;-73
2023/02/20 07:53:04;;;;;;;11.53;2.30;;;29.30;62.00;;;;;;5063569;28;20183;-78
2023/02/20 07:55:32;;;;;;;12.90;2.67;;;29.10;62.10;;;;;;5068023;28;20175;-73
2023/02/20 07:57:59;;;;;;;8.77;2.20;;;28.70;63.80;;;;;;5069061;28;20190;-71
2023/02/20 08:00:27;;;;;;;12.20;2.43;;;28.00;66.20;;;;;;5073408;28;20240;-72
2023/02/20 08:02:55;;;;;;;12.10;2.93;;;27.60;66.90;;;;;;5066372;28;20545;-71
2023/02/20 08:05:22;;;;;;;9.17;2.40;;;27.60;67.60;;;;;;5068374;28;20704;-74
2023/02/20 08:07:50;;;;;;;13.07;3.00;;;27.30;68.60;;;;;;5068016;28;20546;-69
2023/02/20 08:10:24;;;;;;;12.73;2.57;;;27.00;69.70;;;;;;5072523;28;20630;-70
2023/02/20 08:12:53;;;;;;;18.33;3.60;;;26.90;70.50;;;;;;5070298;28;20583;-72
2023/02/20 08:15:22;;;;;;;17.13;3.00;;;26.80;70.50;;;;;;5071484;28;20194;-68
2023/02/20 08:17:49;;;;;;;16.20;2.60;;;26.70;70.90;;;;;;5071114;28;20179;-73
2023/02/20 08:20:20;;;;;;;13.40;3.00;;;26.60;71.50;;;;;;5070812;28;20534;-72
2023/02/20 08:22:49;;;;;;;14.67;2.67;;;26.60;71.90;;;;;;5068448;28;21826;-71
2023/02/20 08:25:18;;;;;;;17.67;3.27;;;26.40;71.80;;;;;;5067888;28;20793;-72
2023/02/20 08:27:48;;;;;;;10.67;2.60;;;26.30;72.00;;;;;;5069413;28;20677;-69
2023/02/20 08:30:23;;;;;;;14.60;3.10;;;26.30;72.30;;;;;;5066600;28;20715;-72
2023/02/20 08:32:51;;;;;;;18.23;3.60;;;26.20;73.00;;;;;;5068885;28;20187;-70
2023/02/20 08:35:20;;;;;;;17.47;3.33;;;26.20;72.60;;;;;;5063424;28;20219;-70
2023/02/20 08:37:47;;;;;;;22.20;3.63;;;26.10;73.10;;;;;;5069457;28;20175;-69
2023/02/20 08:40:15;;;;;;;21.17;3.57;;;26.00;73.50;;;;;;5070956;28;20195;-71
2023/02/20 08:42:42;;;;;;;18.87;3.30;;;26.00;73.20;;;;;;5070213;28;20163;-68
2023/02/20 08:45:10;;;;;;;14.40;3.47;;;26.00;73.50;;;;;;5069231;28;20184;-70
2023/02/20 08:47:37;;;;;;;13.87;3.40;;;25.90;73.60;;;;;;5067678;28;20225;-69
2023/02/20 08:50:05;;;;;;;19.83;3.17;;;25.90;73.80;;;;;;5072548;28;20642;-67
2023/02/20 08:52:32;;;;;;;20.83;3.77;;;25.80;74.30;;;;;;5071957;28;20187;-76
2023/02/20 08:55:00;;;;;;;20.33;3.80;;;25.70;74.50;;;;;;5069896;28;20175;-73
2023/02/20 08:57:27;;;;;;;16.97;3.17;;;25.80;74.70;;;;;;5070634;28;20182;-74
2023/02/20 08:59:55;;;;;;;20.23;3.57;;;25.70;75.00;;;;;;5072366;28;20262;-71
2023/02/20 09:02:27;;;;;;;16.03;3.43;;;25.60;75.50;;;;;;5070800;28;20228;-73
2023/02/20 09:04:56;;;;;;;19.10;3.63;;;25.60;75.70;;;;;;5062932;28;20560;-73
2023/02/20 09:07:24;;;;;;;21.70;3.83;;;25.40;75.80;;;;;;5066595;28;20214;-73
2023/02/20 09:09:51;;;;;;;15.03;3.60;;;25.30;75.70;;;;;;5067486;28;20648;-74
2023/02/20 09:12:19;;;;;;;16.27;3.33;;;25.40;75.90;;;;;;5071782;28;20175;-75
2023/02/20 09:14:47;;;;;;;12.57;3.03;;;25.40;75.90;;;;;;5070656;28;20195;-75
2023/02/20 09:17:15;;;;;;;13.47;3.30;;;25.40;76.00;;;;;;5063263;28;20179;-75
2023/02/20 09:19:42;;;;;;;17.53;3.40;;;25.40;75.80;;;;;;5067083;28;20183;-74
2023/02/20 09:22:10;;;;;;;13.53;3.40;;;25.40;75.80;;;;;;5071335;28;20198;-75
2023/02/20 09:24:37;;;;;;;25.17;4.67;;;25.30;75.80;;;;;;5070938;28;20214;-74
2023/02/20 09:27:08;;;;;;;28.77;3.93;;;25.30;76.20;;;;;;5070205;28;20211;-76
2023/02/20 09:29:39;;;;;;;12.83;3.17;;;25.30;76.70;;;;;;5069454;28;20661;-74
2023/02/20 09:32:07;;;;;;;16.57;3.23;;;25.30;76.60;;;;;;5070433;28;20642;-75
2023/02/20 09:34:35;;;;;;;16.53;3.80;;;25.30;76.70;;;;;;5069382;28;20665;-72
2023/02/20 09:37:03;;;;;;;16.33;3.77;;;25.30;76.80;;;;;;5071420;28;20174;-74
2023/02/20 09:39:31;;;;;;;21.73;3.47;;;25.30;76.90;;;;;;5065578;28;20233;-72
2023/02/20 09:42:07;;;;;;;14.77;3.33;;;25.20;77.20;;;;;;5070522;28;20190;-70
2023/02/20 09:45:02;;;;;;;19.90;3.60;;;25.10;77.10;;;;;;5072425;28;20182;-70
2023/02/20 09:47:50;;;;;;;14.63;3.37;;;25.20;77.50;;;;;;5066638;28;20226;-69
2023/02/20 09:50:38;;;;;;;16.60;3.00;;;25.10;77.50;;;;;;5071672;28;20219;-70
2023/02/20 09:53:48;;;;;;;23.20;3.37;;;25.20;77.40;;;;;;5067880;28;20195;-69
2023/02/20 09:56:24;;;;;;;16.90;3.17;;;25.10;77.40;;;;;;5072005;28;20191;-73
2023/02/20 09:58:51;;;;;;;17.47;3.23;;;25.10;77.60;;;;;;5063745;28;20654;-73
2023/02/20 10:01:22;;;;;;;21.00;3.40;;;25.20;77.70;;;;;;5069025;28;20717;-68
2023/02/20 10:04:11;;;;;;;14.70;3.50;;;25.10;77.70;;;;;;5066675;28;20310;-68
2023/02/20 10:06:38;;;;;;;16.73;3.20;;;25.20;77.70;;;;;;5067285;28;20214;-70
2023/02/20 10:09:12;;;;;;;21.13;3.53;;;25.10;77.90;;;;;;5062709;28;20210;-71
2023/02/20 10:11:46;;;;;;;16.17;3.00;;;25.10;77.80;;;;;;5071918;28;20170;-70
2023/02/20 10:14:32;;;;;;;21.50;3.90;;;25.00;78.00;;;;;;5067851;28;20245;-68
2023/02/20 10:17:25;;;;;;;15.20;3.57;;;25.00;77.90;;;;;;5068173;28;20252;-70
2023/02/20 10:20:13;;;;;;;20.03;3.60;;;25.00;78.00;;;;;;5062794;28;20699;-71
2023/02/20 10:22:50;;;;;;;20.40;3.30;;;24.90;78.30;;;;;;5068594;28;20189;-69
2023/02/20 10:25:23;;;;;;;13.60;3.20;;;25.00;78.20;;;;;;5061834;28;20197;-71
2023/02/20 10:28:03;;;;;;;15.90;3.53;;;25.00;78.40;;;;;;5068288;28;20211;-72
2023/02/20 10:30:40;;;;;;;14.87;2.90;;;25.00;78.10;;;;;;5069062;28;20252;-74
2023/02/20 10:33:41;;;;;;;21.83;3.93;;;24.90;78.60;;;;;;5072141;28;20181;-71
2023/02/20 10:36:08;;;;;;;16.17;3.33;;;24.90;78.20;;;;;;5067505;28;20187;-71
2023/02/20 10:39:00;;;;;;;19.97;3.70;;;24.90;78.10;;;;;;5067965;28;20191;-74
2023/02/20 10:41:37;;;;;;;20.10;3.50;;;24.90;78.50;;;;;;5070277;28;20182;-69
2023/02/20 10:44:22;;;;;;;19.87;3.40;;;24.90;78.50;;;;;;5071491;28;20554;-70
2023/02/20 10:46:59;;;;;;;16.30;3.73;;;24.80;78.80;;;;;;5071524;28;20206;-75
2023/02/20 10:49:35;;;;;;;25.10;3.67;;;24.80;78.60;;;;;;5069773;28;20187;-73
2023/02/20 10:52:06;;;;;;;18.63;3.27;;;24.90;78.50;;;;;;5075715;28;20183;-68
2023/02/20 10:54:48;;;;;;;16.90;3.43;;;24.90;78.60;;;;;;5073030;28;20179;-69
2023/02/20 10:57:33;;;;;;;17.53;3.10;;;24.80;78.60;;;;;;5073642;28;20185;-69
2023/02/20 11:00:38;;;;;;;20.57;3.77;;;24.80;78.50;;;;;;5068730;28;20178;-72
2023/02/20 11:03:51;;;;;;;19.67;4.23;;;24.80;78.30;;;;;;5070460;28;20179;-70
2023/02/20 11:06:21;;;;;;;22.07;3.47;;;24.80;78.10;;;;;;5033029;28;20215;-69
2023/02/20 11:08:49;;;;;;;12.63;3.03;;;24.80;78.50;;;;;;5030810;28;20663;-68
2023/02/20 11:11:46;;;;;;;21.00;3.73;;;24.80;78.30;;;;;;5056477;28;20266;-69
2023/02/20 11:14:32;;;;;;;20.77;3.37;;;24.80;78.30;;;;;;5074204;28;20194;-69
2023/02/20 11:17:13;;;;;;;16.60;2.80;;;24.80;78.60;;;;;;5063596;28;20274;-74
2023/02/20 11:19:54;;;;;;;17.77;3.03;;;24.80;78.50;;;;;;5069016;28;20179;-73
2023/02/20 11:22:46;;;;;;;15.97;2.80;;;24.70;78.60;;;;;;5074115;28;20187;-71
2023/02/20 11:25:20;;;;;;;16.50;3.00;;;24.80;78.70;;;;;;5071651;28;20234;-73
2023/02/20 11:27:53;;;;;;;19.47;3.77;;;24.70;78.80;;;;;;5070332;28;20211;-73
2023/02/20 11:30:32;;;;;;;14.53;3.20;;;24.70;79.30;;;;;;5074874;28;20262;-72
2023/02/20 11:33:15;;;;;;;17.23;3.77;;;24.70;79.10;;;;;;5067807;28;20183;-73
2023/02/20 11:35:44;;;;;;;22.43;3.30;;;24.60;79.00;;;;;;5074671;28;20630;-73
2023/02/20 11:38:32;;;;;;;23.03;4.50;;;24.60;79.50;;;;;;5070584;28;20828;-73
2023/02/20 11:41:08;;;;;;;20.70;3.23;;;24.60;79.40;;;;;;5072147;28;20869;-74
2023/02/20 11:43:43;;;;;;;14.47;3.33;;;24.60;79.40;;;;;;5073540;28;20209;-71
2023/02/20 11:46:13;;;;;;;17.10;3.60;;;24.60;79.50;;;;;;5072029;28;20178;-71
2023/02/20 11:49:10;;;;;;;18.67;3.30;;;24.50;79.60;;;;;;5071467;28;20214;-72
2023/02/20 11:51:47;;;;;;;17.87;3.53;;;24.60;79.70;;;;;;5073142;28;20218;-75
2023/02/20 11:54:28;;;;;;;17.80;3.07;;;24.50;79.90;;;;;;5095720;28;20183;-74
2023/02/20 11:57:28;;;;;;;24.30;3.47;;;24.50;80.10;;;;;;5067665;28;20183;-72
2023/02/20 12:00:14;;;;;;;16.23;3.77;;;24.50;80.10;;;;;;5074235;28;20589;-71
2023/02/20 12:03:13;;;;;;;14.07;2.87;;;24.50;80.10;;;;;;5070873;28;20183;-74
2023/02/20 12:05:46;;;;;;;15.53;2.87;;;24.50;80.30;;;;;;5069427;28;20219;-72
2023/02/20 12:08:29;;;;;;;20.03;3.03;;;24.50;80.60;;;;;;5071300;28;20211;-74
2023/02/20 12:11:00;;;;;;;19.70;3.73;;;24.40;80.90;;;;;;5072770;28;20186;-74
2023/02/20 12:13:29;;;;;;;27.93;3.83;;;24.40;80.90;;;;;;5074182;28;20179;-72
2023/02/20 12:16:21;;;;;;;28.93;4.43;;;24.30;81.10;;;;;;5074512;28;20190;-75
2023/02/20 12:18:49;;;;;;;24.20;3.83;;;24.40;81.10;;;;;;5073058;28;20186;-72
2023/02/20 12:21:19;;;;;;;20.27;3.43;;;24.30;81.10;;;;;;5068303;28;20190;-75
2023/02/20 12:23:53;;;;;;;20.13;3.40;;;24.30;81.50;;;;;;5070641;28;20178;-73
2023/02/20 12:26:20;;;;;;;16.80;3.53;;;24.30;81.70;;;;;;5073721;28;20562;-73
2023/02/20 12:29:26;;;;;;;19.30;3.70;;;24.20;81.70;;;;;;5073049;28;20198;-69
2023/02/20 12:32:18;;;;;;;23.33;3.70;;;24.30;81.70;;;;;;5066141;28;20229;-70
2023/02/20 12:35:03;;;;;;;17.40;2.90;;;24.30;82.00;;;;;;5072314;28;20646;-71
2023/02/20 12:37:30;;;;;;;14.57;3.37;;;24.30;82.10;;;;;;5071303;28;20535;-73
2023/02/20 12:40:33;;;;;;;17.17;3.77;;;24.20;82.20;;;;;;5066235;28;20179;-73
2023/02/20 12:43:29;;;;;;;27.70;3.93;;;24.20;82.20;;;;;;5072484;28;20171;-72
2023/02/20 12:46:08;;;;;;;22.27;3.77;;;24.20;82.30;;;;;;5065023;28;20220;-72
2023/02/20 12:49:12;;;;;;;23.47;3.63;;;24.20;82.70;;;;;;5071180;28;20286;-72
2023/02/20 12:51:50;;;;;;;19.67;4.53;;;24.10;82.50;;;;;;5070315;28;20240;-71
2023/02/20 12:54:33;;;;;;;24.27;3.70;;;24.10;82.80;;;;;;5071436;28;20172;-72
2023/02/20 12:57:23;;;;;;;19.80;4.00;;;24.10;82.70;;;;;;5071780;28;20175;-71
2023/02/20 13:00:29;;;;;;;24.40;3.77;;;24.10;82.70;;;;;;5064537;28;20172;-75
2023/02/20 13:03:23;;;;;;;24.70;4.30;;;24.00;83.00;;;;;;5071645;28;20211;-72
2023/02/20 13:05:52;;;;;;;21.47;3.87;;;24.10;82.90;;;;;;5061196;28;20199;-73
2023/02/20 13:08:28;;;;;;;24.07;3.80;;;24.10;83.30;;;;;;5070935;28;20219;-73
2023/02/20 13:11:01;;;;;;;19.27;3.33;;;24.10;83.00;;;;;;5072712;28;20182;-72
2023/02/20 13:14:03;;;;;;;27.10;4.57;;;24.10;83.10;;;;;;5071191;28;20240;-71
2023/02/20 13:16:47;;;;;;;21.03;3.83;;;24.00;83.00;;;;;;5071204;28;20183;-71
2023/02/20 13:19:24;;;;;;;18.60;3.43;;;24.10;83.10;;;;;;5069401;28;20194;-73
2023/02/20 13:21:53;;;;;;;22.53;3.20;;;24.00;83.10;;;;;;5072846;28;20179;-75
2023/02/20 13:24:20;;;;;;;16.07;4.13;;;24.00;83.40;;;;;;5064177;28;20269;-76
2023/02/20 13:26:54;;;;;;;21.70;5.07;;;24.00;83.60;;;;;;5072849;28;20238;-70
2023/02/20 13:29:27;;;;;;;21.43;4.73;;;24.00;83.70;;;;;;5068856;28;20214;-73
2023/02/20 13:32:00;;;;;;;27.73;4.30;;;23.90;83.70;;;;;;5072799;28;20175;-72